sensor_id;sensor_type;location;lat;lon;timestamp;pressure;altitude;pressure_sealevel;temperature;humidity
51053;BME280;37093;37.716;-122.060;2022-12-18T00:01:13;99997.49;;;16.99;29.03
51053;BME280;37093;37.716;-122.060;2022-12-18T00:03:42;99996.36;;;17.46;27.19
51053;BME280;37093;37.716;-122.060;2022-12-18T00:06:11;99995.11;;;17.37;28.49
51053;BME280;37093;37.716;-122.060;2022-12-18T00:08:40;99996.71;;;17.43;27.81
51053;BME280;37093;37.716;-122.060;2022-12-18T00:11:11;99995.67;;;17.31;27.08
51053;BME280;37093;37.716;-122.060;2022-12-18T00:13:39;99997.56;;;17.00;28.03
51053;BME280;37093;37.716;-122.060;2022-12-18T00:16:11;99997.30;;;16.69;28.11
51053;BME280;37093;37.716;-122.060;2022-12-18T00:18:40;99996.77;;;16.30;28.70
51053;BME280;37093;37.716;-122.060;2022-12-18T00:21:11;100000.54;;;16.93;28.60
51053;BME280;37093;37.716;-122.060;2022-12-18T00:23:41;99998.16;;;16.80;28.62
51053;BME280;37093;37.716;-122.060;2022-12-18T00:26:16;99996.43;;;16.67;29.02
51053;BME280;37093;37.716;-122.060;2022-12-18T00:28:46;99995.88;;;16.71;29.18
51053;BME280;37093;37.716;-122.060;2022-12-18T00:31:16;99998.62;;;17.25;29.47
51053;BME280;37093;37.716;-122.060;2022-12-18T00:33:45;99998.54;;;16.98;30.26
51053;BME280;37093;37.716;-122.060;2022-12-18T00:36:15;99998.10;;;17.17;29.65
51053;BME280;37093;37.716;-122.060;2022-12-18T00:38:44;99996.44;;;16.99;28.63
51053;BME280;37093;37.716;-122.060;2022-12-18T00:41:14;99994.78;;;16.91;29.68
51053;BME280;37093;37.716;-122.060;2022-12-18T00:43:43;99998.11;;;17.03;29.45
51053;BME280;37093;37.716;-122.060;2022-12-18T00:46:11;99998.54;;;16.76;29.49
51053;BME280;37093;37.716;-122.060;2022-12-18T00:48:40;99997.59;;;16.77;30.62
51053;BME280;37093;37.716;-122.060;2022-12-18T00:51:09;99997.45;;;16.93;30.85
51053;BME280;37093;37.716;-122.060;2022-12-18T00:53:37;99999.71;;;16.88;30.37
51053;BME280;37093;37.716;-122.060;2022-12-18T00:56:06;99999.89;;;16.78;29.80
51053;BME280;37093;37.716;-122.060;2022-12-18T00:59:40;99997.10;;;16.63;29.65
51053;BME280;37093;37.716;-122.060;2022-12-18T01:02:08;99994.71;;;15.88;30.94
51053;BME280;37093;37.716;-122.060;2022-12-18T01:04:36;99999.40;;;15.46;31.76
51053;BME280;37093;37.716;-122.060;2022-12-18T01:07:05;100000.22;;;15.60;32.54
51053;BME280;37093;37.716;-122.060;2022-12-18T01:09:34;99998.22;;;16.03;32.08
51053;BME280;37093;37.716;-122.060;2022-12-18T01:12:02;100000.26;;;16.10;32.00
51053;BME280;37093;37.716;-122.060;2022-12-18T01:14:30;99998.49;;;15.86;31.17
51053;BME280;37093;37.716;-122.060;2022-12-18T01:16:59;100001.44;;;15.61;31.74
51053;BME280;37093;37.716;-122.060;2022-12-18T01:19:28;99999.84;;;15.81;31.31
51053;BME280;37093;37.716;-122.060;2022-12-18T01:21:57;99996.86;;;15.99;31.25
51053;BME280;37093;37.716;-122.060;2022-12-18T01:24:25;99995.65;;;15.66;32.36
51053;BME280;37093;37.716;-122.060;2022-12-18T01:26:54;99997.12;;;15.59;32.93
51053;BME280;37093;37.716;-122.060;2022-12-18T01:29:22;99995.44;;;15.85;31.43
51053;BME280;37093;37.716;-122.060;2022-12-18T01:31:50;99996.46;;;15.39;32.01
51053;BME280;37093;37.716;-122.060;2022-12-18T01:34:19;99997.12;;;15.41;31.46
51053;BME280;37093;37.716;-122.060;2022-12-18T01:36:47;99995.59;;;15.49;31.55
51053;BME280;37093;37.716;-122.060;2022-12-18T01:39:16;99995.25;;;15.38;31.83
51053;BME280;37093;37.716;-122.060;2022-12-18T01:41:45;99993.79;;;15.38;31.59
51053;BME280;37093;37.716;-122.060;2022-12-18T01:44:55;99997.69;;;15.25;32.54
51053;BME280;37093;37.716;-122.060;2022-12-18T01:47:27;100003.42;;;14.95;32.00
51053;BME280;37093;37.716;-122.060;2022-12-18T01:49:58;100004.65;;;15.05;32.38
51053;BME280;37093;37.716;-122.060;2022-12-18T01:52:29;100000.31;;;14.95;33.11
51053;BME280;37093;37.716;-122.060;2022-12-18T01:55:00;100000.92;;;14.70;32.66
51053;BME280;37093;37.716;-122.060;2022-12-18T01:57:30;100000.19;;;14.98;32.03
51053;BME280;37093;37.716;-122.060;2022-12-18T02:00:01;99998.85;;;14.66;32.64
51053;BME280;37093;37.716;-122.060;2022-12-18T02:02:31;99999.41;;;14.12;33.15
51053;BME280;37093;37.716;-122.060;2022-12-18T02:04:59;99999.55;;;14.31;33.04
51053;BME280;37093;37.716;-122.060;2022-12-18T02:07:37;100008.61;;;14.62;32.71
51053;BME280;37093;37.716;-122.060;2022-12-18T02:10:10;100013.44;;;14.43;33.63
51053;BME280;37093;37.716;-122.060;2022-12-18T02:12:48;100015.39;;;14.43;32.74
51053;BME280;37093;37.716;-122.060;2022-12-18T02:15:22;100017.38;;;14.36;33.95
51053;BME280;37093;37.716;-122.060;2022-12-18T02:17:56;100016.06;;;14.42;33.38
51053;BME280;37093;37.716;-122.060;2022-12-18T02:20:30;100020.64;;;14.04;33.30
51053;BME280;37093;37.716;-122.060;2022-12-18T02:23:09;100020.66;;;14.28;32.83
51053;BME280;37093;37.716;-122.060;2022-12-18T02:26:19;100021.43;;;13.83;33.09
51053;BME280;37093;37.716;-122.060;2022-12-18T02:28:55;100018.41;;;13.71;33.63
51053;BME280;37093;37.716;-122.060;2022-12-18T02:31:28;100019.81;;;13.85;34.04
51053;BME280;37093;37.716;-122.060;2022-12-18T02:34:01;100016.24;;;13.56;33.95
51053;BME280;37093;37.716;-122.060;2022-12-18T02:36:33;100010.60;;;13.42;34.40
51053;BME280;37093;37.716;-122.060;2022-12-18T02:39:02;100011.92;;;13.47;34.14
51053;BME280;37093;37.716;-122.060;2022-12-18T02:41:34;100013.21;;;13.41;33.93
51053;BME280;37093;37.716;-122.060;2022-12-18T02:44:09;100014.80;;;13.69;33.77
51053;BME280;37093;37.716;-122.060;2022-12-18T02:46:39;100015.14;;;13.61;33.73
51053;BME280;37093;37.716;-122.060;2022-12-18T02:49:20;100011.53;;;13.62;33.93
51053;BME280;37093;37.716;-122.060;2022-12-18T02:51:54;100008.98;;;13.59;33.75
51053;BME280;37093;37.716;-122.060;2022-12-18T02:54:33;100007.85;;;12.98;34.24
51053;BME280;37093;37.716;-122.060;2022-12-18T02:57:16;100001.06;;;13.46;33.97
51053;BME280;37093;37.716;-122.060;2022-12-18T02:59:54;100001.87;;;13.46;34.28
51053;BME280;37093;37.716;-122.060;2022-12-18T03:02:30;99998.03;;;13.76;33.96
51053;BME280;37093;37.716;-122.060;2022-12-18T03:05:07;99997.00;;;13.45;34.33
51053;BME280;37093;37.716;-122.060;2022-12-18T03:07:39;100000.94;;;13.29;34.12
51053;BME280;37093;37.716;-122.060;2022-12-18T03:10:13;99996.83;;;13.00;34.67
51053;BME280;37093;37.716;-122.060;2022-12-18T03:12:46;99991.85;;;13.19;34.54
51053;BME280;37093;37.716;-122.060;2022-12-18T03:15:19;99989.82;;;13.29;34.79
51053;BME280;37093;37.716;-122.060;2022-12-18T03:17:54;99995.15;;;12.89;34.44
51053;BME280;37093;37.716;-122.060;2022-12-18T03:20:26;99998.20;;;13.03;34.36
51053;BME280;37093;37.716;-122.060;2022-12-18T03:23:02;99997.00;;;12.99;34.10
51053;BME280;37093;37.716;-122.060;2022-12-18T03:25:33;99999.06;;;12.76;34.33
51053;BME280;37093;37.716;-122.060;2022-12-18T03:28:04;99999.31;;;12.67;34.82
51053;BME280;37093;37.716;-122.060;2022-12-18T03:30:39;99998.04;;;12.58;35.09
51053;BME280;37093;37.716;-122.060;2022-12-18T03:33:13;99998.08;;;12.28;34.97
51053;BME280;37093;37.716;-122.060;2022-12-18T03:35:43;99996.78;;;12.40;35.23
51053;BME280;37093;37.716;-122.060;2022-12-18T03:38:12;99992.65;;;12.25;35.35
51053;BME280;37093;37.716;-122.060;2022-12-18T03:40:59;99995.77;;;12.32;35.62
51053;BME280;37093;37.716;-122.060;2022-12-18T03:43:38;99997.06;;;12.03;36.06
51053;BME280;37093;37.716;-122.060;2022-12-18T03:46:15;100002.22;;;12.17;35.94
51053;BME280;37093;37.716;-122.060;2022-12-18T03:48:48;100001.86;;;12.41;35.87
51053;BME280;37093;37.716;-122.060;2022-12-18T03:51:26;100002.59;;;11.49;36.34
51053;BME280;37093;37.716;-122.060;2022-12-18T03:53:58;100003.71;;;11.43;36.35
51053;BME280;37093;37.716;-122.060;2022-12-18T03:56:31;100006.13;;;11.93;36.54
51053;BME280;37093;37.716;-122.060;2022-12-18T03:59:02;100003.27;;;11.91;36.68
51053;BME280;37093;37.716;-122.060;2022-12-18T04:01:35;100001.90;;;11.96;36.61
51053;BME280;37093;37.716;-122.060;2022-12-18T04:04:06;100003.11;;;11.25;37.18
51053;BME280;37093;37.716;-122.060;2022-12-18T04:06:36;100007.43;;;11.81;36.86
51053;BME280;37093;37.716;-122.060;2022-12-18T04:09:05;100000.90;;;11.73;36.47
51053;BME280;37093;37.716;-122.060;2022-12-18T04:11:34;100001.77;;;11.42;36.47
51053;BME280;37093;37.716;-122.060;2022-12-18T04:14:03;99998.71;;;11.57;36.79
51053;BME280;37093;37.716;-122.060;2022-12-18T04:16:31;99997.59;;;11.89;36.12
51053;BME280;37093;37.716;-122.060;2022-12-18T04:19:00;99997.26;;;11.04;37.27
51053;BME280;37093;37.716;-122.060;2022-12-18T04:21:28;99993.72;;;11.43;36.67
51053;BME280;37093;37.716;-122.060;2022-12-18T04:23:56;99992.78;;;11.31;36.72
51053;BME280;37093;37.716;-122.060;2022-12-18T04:26:26;99992.43;;;11.52;36.89
51053;BME280;37093;37.716;-122.060;2022-12-18T04:28:53;99988.80;;;11.62;36.65
51053;BME280;37093;37.716;-122.060;2022-12-18T04:31:22;99988.04;;;11.63;36.82
51053;BME280;37093;37.716;-122.060;2022-12-18T04:33:52;99987.67;;;11.71;36.18
51053;BME280;37093;37.716;-122.060;2022-12-18T04:36:20;99985.47;;;11.62;36.81
51053;BME280;37093;37.716;-122.060;2022-12-18T04:38:48;99981.39;;;11.51;36.56
51053;BME280;37093;37.716;-122.060;2022-12-18T04:41:16;99978.55;;;11.67;36.53
51053;BME280;37093;37.716;-122.060;2022-12-18T04:43:45;99976.79;;;10.94;37.42
51053;BME280;37093;37.716;-122.060;2022-12-18T04:46:14;99984.47;;;9.14;39.51
51053;BME280;37093;37.716;-122.060;2022-12-18T04:48:44;99980.18;;;9.91;39.15
51053;BME280;37093;37.716;-122.060;2022-12-18T04:51:13;99982.26;;;9.63;39.72
51053;BME280;37093;37.716;-122.060;2022-12-18T04:53:42;99974.58;;;10.57;38.38
51053;BME280;37093;37.716;-122.060;2022-12-18T04:56:12;99981.37;;;10.54;38.29
51053;BME280;37093;37.716;-122.060;2022-12-18T04:58:42;99978.37;;;10.90;37.65
51053;BME280;37093;37.716;-122.060;2022-12-18T05:01:14;99978.50;;;11.34;37.70
51053;BME280;37093;37.716;-122.060;2022-12-18T05:03:43;99980.03;;;10.86;37.43
51053;BME280;37093;37.716;-122.060;2022-12-18T05:06:11;99978.40;;;10.84;37.53
51053;BME280;37093;37.716;-122.060;2022-12-18T05:08:39;99981.35;;;10.82;37.25
51053;BME280;37093;37.716;-122.060;2022-12-18T05:11:10;99987.41;;;10.89;37.38
51053;BME280;37093;37.716;-122.060;2022-12-18T05:13:39;99988.68;;;10.50;38.08
51053;BME280;37093;37.716;-122.060;2022-12-18T05:16:08;99994.14;;;10.43;38.14
51053;BME280;37093;37.716;-122.060;2022-12-18T05:18:37;99994.70;;;10.73;37.64
51053;BME280;37093;37.716;-122.060;2022-12-18T05:21:06;99995.72;;;11.04;37.67
51053;BME280;37093;37.716;-122.060;2022-12-18T05:23:35;99994.85;;;10.60;38.22
51053;BME280;37093;37.716;-122.060;2022-12-18T05:26:05;99996.71;;;10.53;38.03
51053;BME280;37093;37.716;-122.060;2022-12-18T05:28:35;100000.96;;;11.01;37.82
51053;BME280;37093;37.716;-122.060;2022-12-18T05:31:04;100001.91;;;10.99;37.48
51053;BME280;37093;37.716;-122.060;2022-12-18T05:33:34;100001.97;;;10.66;37.78
51053;BME280;37093;37.716;-122.060;2022-12-18T05:36:05;100002.89;;;10.83;37.73
51053;BME280;37093;37.716;-122.060;2022-12-18T05:38:35;100005.42;;;10.72;37.88
51053;BME280;37093;37.716;-122.060;2022-12-18T05:41:05;99999.72;;;11.06;37.43
51053;BME280;37093;37.716;-122.060;2022-12-18T05:43:34;100001.07;;;11.13;37.11
51053;BME280;37093;37.716;-122.060;2022-12-18T05:46:05;100002.83;;;11.19;37.46
51053;BME280;37093;37.716;-122.060;2022-12-18T05:48:34;100002.62;;;10.99;37.46
51053;BME280;37093;37.716;-122.060;2022-12-18T05:51:06;99996.29;;;11.01;37.02
51053;BME280;37093;37.716;-122.060;2022-12-18T05:53:35;99993.14;;;10.98;36.95
51053;BME280;37093;37.716;-122.060;2022-12-18T05:56:07;99993.75;;;10.96;36.87
51053;BME280;37093;37.716;-122.060;2022-12-18T05:58:36;99989.82;;;11.26;36.92
51053;BME280;37093;37.716;-122.060;2022-12-18T06:01:10;99989.48;;;11.07;36.82
51053;BME280;37093;37.716;-122.060;2022-12-18T06:03:38;99993.89;;;10.84;37.14
51053;BME280;37093;37.716;-122.060;2022-12-18T06:06:14;99995.58;;;10.80;36.98
51053;BME280;37093;37.716;-122.060;2022-12-18T06:08:42;99995.47;;;11.03;36.84
51053;BME280;37093;37.716;-122.060;2022-12-18T06:11:11;99991.63;;;10.48;37.67
51053;BME280;37093;37.716;-122.060;2022-12-18T06:13:40;99993.16;;;11.04;37.12
51053;BME280;37093;37.716;-122.060;2022-12-18T06:16:08;99990.30;;;11.08;37.27
51053;BME280;37093;37.716;-122.060;2022-12-18T06:18:37;99988.56;;;10.95;37.41
51053;BME280;37093;37.716;-122.060;2022-12-18T06:21:05;99988.04;;;10.86;37.71
51053;BME280;37093;37.716;-122.060;2022-12-18T06:23:34;99983.69;;;10.77;37.98
51053;BME280;37093;37.716;-122.060;2022-12-18T06:26:06;99982.45;;;10.88;37.49
51053;BME280;37093;37.716;-122.060;2022-12-18T06:28:34;99981.96;;;10.92;37.60
51053;BME280;37093;37.716;-122.060;2022-12-18T06:31:04;99975.05;;;10.83;37.32
51053;BME280;37093;37.716;-122.060;2022-12-18T06:33:33;99977.21;;;10.82;37.78
51053;BME280;37093;37.716;-122.060;2022-12-18T06:36:03;99972.84;;;10.86;37.92
51053;BME280;37093;37.716;-122.060;2022-12-18T06:38:32;99973.17;;;11.10;37.52
51053;BME280;37093;37.716;-122.060;2022-12-18T06:41:02;99972.07;;;11.02;37.79
51053;BME280;37093;37.716;-122.060;2022-12-18T06:43:34;99970.38;;;10.98;37.60
51053;BME280;37093;37.716;-122.060;2022-12-18T06:46:03;99974.14;;;10.23;38.35
51053;BME280;37093;37.716;-122.060;2022-12-18T06:48:32;99975.93;;;10.21;38.41
51053;BME280;37093;37.716;-122.060;2022-12-18T06:51:01;99975.74;;;10.38;38.12
51053;BME280;37093;37.716;-122.060;2022-12-18T06:53:30;99972.34;;;10.54;37.76
51053;BME280;37093;37.716;-122.060;2022-12-18T06:56:01;99969.61;;;10.62;38.05
51053;BME280;37093;37.716;-122.060;2022-12-18T06:58:30;99974.33;;;10.09;38.57
51053;BME280;37093;37.716;-122.060;2022-12-18T07:01:00;99977.75;;;9.75;38.78
51053;BME280;37093;37.716;-122.060;2022-12-18T07:03:29;99978.69;;;9.50;39.79
51053;BME280;37093;37.716;-122.060;2022-12-18T07:05:58;99983.02;;;9.29;39.74
51053;BME280;37093;37.716;-122.060;2022-12-18T07:08:27;99983.94;;;9.64;39.57
51053;BME280;37093;37.716;-122.060;2022-12-18T07:10:56;99989.35;;;9.90;39.35
51053;BME280;37093;37.716;-122.060;2022-12-18T07:13:25;99989.68;;;9.81;38.88
51053;BME280;37093;37.716;-122.060;2022-12-18T07:15:54;99991.72;;;10.00;38.90
51053;BME280;37093;37.716;-122.060;2022-12-18T07:18:22;99994.48;;;10.48;38.93
51053;BME280;37093;37.716;-122.060;2022-12-18T07:20:50;100000.13;;;10.01;38.65
51053;BME280;37093;37.716;-122.060;2022-12-18T07:23:18;99998.70;;;10.26;38.46
51053;BME280;37093;37.716;-122.060;2022-12-18T07:25:47;100001.81;;;10.40;38.14
51053;BME280;37093;37.716;-122.060;2022-12-18T07:28:15;100003.05;;;10.48;38.12
51053;BME280;37093;37.716;-122.060;2022-12-18T07:30:44;100002.83;;;10.57;38.21
51053;BME280;37093;37.716;-122.060;2022-12-18T07:33:12;99998.90;;;10.33;38.03
51053;BME280;37093;37.716;-122.060;2022-12-18T07:35:40;99998.64;;;10.27;37.78
51053;BME280;37093;37.716;-122.060;2022-12-18T07:38:08;99999.91;;;10.58;37.91
51053;BME280;37093;37.716;-122.060;2022-12-18T07:40:37;99999.73;;;10.60;38.02
51053;BME280;37093;37.716;-122.060;2022-12-18T07:43:05;100001.54;;;10.53;37.99
51053;BME280;37093;37.716;-122.060;2022-12-18T07:45:33;99996.48;;;10.71;38.26
51053;BME280;37093;37.716;-122.060;2022-12-18T07:48:02;99995.60;;;10.52;38.20
51053;BME280;37093;37.716;-122.060;2022-12-18T07:50:30;99991.44;;;10.51;38.30
51053;BME280;37093;37.716;-122.060;2022-12-18T07:52:59;99992.86;;;10.41;37.73
51053;BME280;37093;37.716;-122.060;2022-12-18T07:55:27;99992.45;;;10.15;38.34
51053;BME280;37093;37.716;-122.060;2022-12-18T07:57:55;99990.54;;;10.02;38.60
51053;BME280;37093;37.716;-122.060;2022-12-18T08:01:13;99989.62;;;8.90;39.29
51053;BME280;37093;37.716;-122.060;2022-12-18T08:03:42;99975.78;;;9.01;37.82
51053;BME280;37093;37.716;-122.060;2022-12-18T08:06:11;99970.37;;;11.05;36.33
51053;BME280;37093;37.716;-122.060;2022-12-18T08:08:39;99974.18;;;11.12;36.44
51053;BME280;37093;37.716;-122.060;2022-12-18T08:11:08;99970.41;;;10.53;37.30
51053;BME280;37093;37.716;-122.060;2022-12-18T08:13:36;99975.81;;;9.99;38.88
51053;BME280;37093;37.716;-122.060;2022-12-18T08:16:07;99969.02;;;10.52;39.01
51053;BME280;37093;37.716;-122.060;2022-12-18T08:18:36;99966.92;;;9.33;40.43
51053;BME280;37093;37.716;-122.060;2022-12-18T08:21:09;99964.26;;;9.38;40.19
51053;BME280;37093;37.716;-122.060;2022-12-18T08:23:38;99969.89;;;9.74;39.84
51053;BME280;37093;37.716;-122.060;2022-12-18T08:26:07;99969.53;;;10.05;40.07
51053;BME280;37093;37.716;-122.060;2022-12-18T08:28:36;99968.42;;;10.02;40.23
51053;BME280;37093;37.716;-122.060;2022-12-18T08:31:05;99965.11;;;9.75;39.99
51053;BME280;37093;37.716;-122.060;2022-12-18T08:33:34;99962.04;;;9.58;39.98
51053;BME280;37093;37.716;-122.060;2022-12-18T08:36:03;99955.24;;;9.94;39.25
51053;BME280;37093;37.716;-122.060;2022-12-18T08:38:32;99956.79;;;9.88;39.88
51053;BME280;37093;37.716;-122.060;2022-12-18T08:41:03;99951.96;;;9.82;39.63
51053;BME280;37093;37.716;-122.060;2022-12-18T08:43:32;99953.62;;;10.33;39.59
51053;BME280;37093;37.716;-122.060;2022-12-18T08:46:00;99954.94;;;10.30;39.70
51053;BME280;37093;37.716;-122.060;2022-12-18T08:48:28;99955.45;;;9.83;39.53
51053;BME280;37093;37.716;-122.060;2022-12-18T08:50:57;99956.08;;;9.91;39.92
51053;BME280;37093;37.716;-122.060;2022-12-18T08:53:26;99955.51;;;9.59;40.03
51053;BME280;37093;37.716;-122.060;2022-12-18T08:55:57;99953.44;;;9.69;40.26
51053;BME280;37093;37.716;-122.060;2022-12-18T08:58:25;99950.73;;;10.01;40.01
51053;BME280;37093;37.716;-122.060;2022-12-18T09:00:54;99946.31;;;10.11;39.45
51053;BME280;37093;37.716;-122.060;2022-12-18T09:03:22;99944.41;;;9.76;39.98
51053;BME280;37093;37.716;-122.060;2022-12-18T09:05:51;99944.48;;;10.03;39.74
51053;BME280;37093;37.716;-122.060;2022-12-18T09:08:19;99942.24;;;10.07;39.39
51053;BME280;37093;37.716;-122.060;2022-12-18T09:10:49;99945.91;;;9.97;39.43
51053;BME280;37093;37.716;-122.060;2022-12-18T09:13:18;99949.46;;;10.10;39.13
51053;BME280;37093;37.716;-122.060;2022-12-18T09:15:49;99951.19;;;9.96;38.98
51053;BME280;37093;37.716;-122.060;2022-12-18T09:18:20;99959.35;;;9.79;39.70
51053;BME280;37093;37.716;-122.060;2022-12-18T09:20:48;99960.47;;;9.97;39.80
51053;BME280;37093;37.716;-122.060;2022-12-18T09:23:17;99957.28;;;9.96;39.67
51053;BME280;37093;37.716;-122.060;2022-12-18T09:25:45;99960.98;;;9.88;39.87
51053;BME280;37093;37.716;-122.060;2022-12-18T09:28:15;99963.03;;;10.00;39.70
51053;BME280;37093;37.716;-122.060;2022-12-18T09:30:45;99972.16;;;9.74;39.63
51053;BME280;37093;37.716;-122.060;2022-12-18T09:33:14;99974.95;;;10.23;39.72
51053;BME280;37093;37.716;-122.060;2022-12-18T09:35:44;99978.43;;;9.19;40.98
51053;BME280;37093;37.716;-122.060;2022-12-18T09:38:15;99979.30;;;9.83;39.83
51053;BME280;37093;37.716;-122.060;2022-12-18T09:40:46;99981.29;;;9.88;40.14
51053;BME280;37093;37.716;-122.060;2022-12-18T09:43:18;99983.84;;;10.16;39.39
51053;BME280;37093;37.716;-122.060;2022-12-18T09:45:52;99984.95;;;10.02;39.30
51053;BME280;37093;37.716;-122.060;2022-12-18T09:48:26;99986.43;;;10.27;39.14
51053;BME280;37093;37.716;-122.060;2022-12-18T09:50:59;99982.89;;;10.43;38.79
51053;BME280;37093;37.716;-122.060;2022-12-18T09:53:33;99988.28;;;10.21;38.71
51053;BME280;37093;37.716;-122.060;2022-12-18T09:56:04;99994.93;;;10.27;38.76
51053;BME280;37093;37.716;-122.060;2022-12-18T09:58:39;99994.81;;;10.33;38.78
51053;BME280;37093;37.716;-122.060;2022-12-18T10:01:10;99996.45;;;10.31;38.53
51053;BME280;37093;37.716;-122.060;2022-12-18T10:03:40;99997.82;;;10.25;38.56
51053;BME280;37093;37.716;-122.060;2022-12-18T10:06:13;99999.93;;;10.23;38.83
51053;BME280;37093;37.716;-122.060;2022-12-18T10:08:49;100007.54;;;10.09;38.54
51053;BME280;37093;37.716;-122.060;2022-12-18T10:11:32;100008.11;;;10.08;38.40
51053;BME280;37093;37.716;-122.060;2022-12-18T10:14:09;100009.11;;;9.76;38.61
51053;BME280;37093;37.716;-122.060;2022-12-18T10:16:47;100002.00;;;9.76;38.92
51053;BME280;37093;37.716;-122.060;2022-12-18T10:19:29;100003.67;;;10.02;38.99
51053;BME280;37093;37.716;-122.060;2022-12-18T10:22:10;100005.81;;;9.19;39.38
51053;BME280;37093;37.716;-122.060;2022-12-18T10:24:44;100005.41;;;9.55;39.52
51053;BME280;37093;37.716;-122.060;2022-12-18T10:27:18;100009.05;;;9.58;39.67
51053;BME280;37093;37.716;-122.060;2022-12-18T10:29:46;100007.32;;;9.33;40.23
51053;BME280;37093;37.716;-122.060;2022-12-18T10:32:17;100007.47;;;9.63;39.88
51053;BME280;37093;37.716;-122.060;2022-12-18T10:34:47;100005.53;;;9.46;39.79
51053;BME280;37093;37.716;-122.060;2022-12-18T10:37:19;100003.35;;;9.70;39.51
51053;BME280;37093;37.716;-122.060;2022-12-18T10:40:04;100005.66;;;9.83;39.29
51053;BME280;37093;37.716;-122.060;2022-12-18T10:42:33;100005.97;;;9.62;39.02
51053;BME280;37093;37.716;-122.060;2022-12-18T10:45:11;100007.42;;;9.90;39.07
51053;BME280;37093;37.716;-122.060;2022-12-18T10:47:44;100007.11;;;9.77;39.22
51053;BME280;37093;37.716;-122.060;2022-12-18T10:50:26;100007.55;;;10.26;38.95
51053;BME280;37093;37.716;-122.060;2022-12-18T10:52:59;100006.22;;;10.03;38.90
51053;BME280;37093;37.716;-122.060;2022-12-18T10:55:33;100007.52;;;9.90;39.08
51053;BME280;37093;37.716;-122.060;2022-12-18T10:58:19;100005.93;;;10.00;38.98
51053;BME280;37093;37.716;-122.060;2022-12-18T11:01:04;100002.93;;;9.70;39.16
51053;BME280;37093;37.716;-122.060;2022-12-18T11:03:35;100005.20;;;9.65;39.06
51053;BME280;37093;37.716;-122.060;2022-12-18T11:06:06;100008.41;;;9.66;39.17
51053;BME280;37093;37.716;-122.060;2022-12-18T11:08:36;100010.08;;;9.87;39.10
51053;BME280;37093;37.716;-122.060;2022-12-18T11:11:15;100010.31;;;9.81;39.26
51053;BME280;37093;37.716;-122.060;2022-12-18T11:13:57;100015.77;;;10.01;39.08
51053;BME280;37093;37.716;-122.060;2022-12-18T11:16:27;100016.79;;;9.47;39.22
51053;BME280;37093;37.716;-122.060;2022-12-18T11:19:10;100016.02;;;9.64;39.03
51053;BME280;37093;37.716;-122.060;2022-12-18T11:21:42;100016.39;;;9.47;39.62
51053;BME280;37093;37.716;-122.060;2022-12-18T11:24:20;100016.08;;;9.24;40.09
51053;BME280;37093;37.716;-122.060;2022-12-18T11:26:51;100010.50;;;9.05;40.77
51053;BME280;37093;37.716;-122.060;2022-12-18T11:29:27;100011.07;;;9.45;40.05
51053;BME280;37093;37.716;-122.060;2022-12-18T11:32:24;100009.08;;;9.08;40.40
51053;BME280;37093;37.716;-122.060;2022-12-18T11:35:01;100006.65;;;9.07;40.34
51053;BME280;37093;37.716;-122.060;2022-12-18T11:37:32;100008.90;;;9.09;39.94
51053;BME280;37093;37.716;-122.060;2022-12-18T11:40:02;100006.26;;;8.92;40.27
51053;BME280;37093;37.716;-122.060;2022-12-18T11:42:41;100004.31;;;8.21;41.39
51053;BME280;37093;37.716;-122.060;2022-12-18T11:45:30;100001.30;;;9.04;40.45
51053;BME280;37093;37.716;-122.060;2022-12-18T11:48:05;99998.95;;;9.13;39.91
51053;BME280;37093;37.716;-122.060;2022-12-18T11:50:44;99996.89;;;8.77;40.68
51053;BME280;37093;37.716;-122.060;2022-12-18T11:53:14;99992.11;;;8.97;40.13
51053;BME280;37093;37.716;-122.060;2022-12-18T11:55:50;99989.86;;;8.61;40.70
51053;BME280;37093;37.716;-122.060;2022-12-18T11:58:40;99986.01;;;8.89;40.55
51053;BME280;37093;37.716;-122.060;2022-12-18T12:01:19;99988.90;;;8.94;40.52
51053;BME280;37093;37.716;-122.060;2022-12-18T12:04:10;99991.80;;;9.28;40.27
51053;BME280;37093;37.716;-122.060;2022-12-18T12:06:49;99988.27;;;8.75;40.70
51053;BME280;37093;37.716;-122.060;2022-12-18T12:09:26;99985.93;;;9.42;39.99
51053;BME280;37093;37.716;-122.060;2022-12-18T12:12:10;99988.54;;;8.98;40.28
51053;BME280;37093;37.716;-122.060;2022-12-18T12:14:49;99989.24;;;7.99;42.00
51053;BME280;37093;37.716;-122.060;2022-12-18T12:17:29;99991.21;;;8.01;42.09
51053;BME280;37093;37.716;-122.060;2022-12-18T12:20:06;99995.06;;;8.03;42.93
51053;BME280;37093;37.716;-122.060;2022-12-18T12:22:42;99986.56;;;8.26;41.96
51053;BME280;37093;37.716;-122.060;2022-12-18T12:25:28;99985.10;;;8.07;42.48
51053;BME280;37093;37.716;-122.060;2022-12-18T12:28:09;99989.36;;;8.79;41.36
51053;BME280;37093;37.716;-122.060;2022-12-18T12:30:50;99987.79;;;8.33;41.62
51053;BME280;37093;37.716;-122.060;2022-12-18T12:33:32;99986.43;;;8.28;41.33
51053;BME280;37093;37.716;-122.060;2022-12-18T12:36:09;99985.36;;;8.51;41.70
51053;BME280;37093;37.716;-122.060;2022-12-18T12:38:43;99980.39;;;8.73;41.64
51053;BME280;37093;37.716;-122.060;2022-12-18T12:41:16;99977.51;;;8.70;41.30
51053;BME280;37093;37.716;-122.060;2022-12-18T12:43:47;99982.91;;;8.51;41.74
51053;BME280;37093;37.716;-122.060;2022-12-18T12:46:18;99987.24;;;8.45;41.94
51053;BME280;37093;37.716;-122.060;2022-12-18T12:48:51;99981.24;;;9.06;41.19
51053;BME280;37093;37.716;-122.060;2022-12-18T12:51:22;99984.52;;;8.77;40.87
51053;BME280;37093;37.716;-122.060;2022-12-18T12:53:52;99990.41;;;8.93;40.87
51053;BME280;37093;37.716;-122.060;2022-12-18T12:56:24;99993.55;;;8.66;41.49